Time;durP1;ratioP1;P1;durP2;ratioP2;P2;SDS_P1;SDS_P2;PMS_P1;PMS_P2;Temp;Humidity;BMP_temperature;BMP_pressure;BME280_temperature;BME280_humidity;BME280_pressure;Samples;Min_cycle;Max_cycle;Signal;HPM_P1;HPM_P2
2023/04/05 00:00:10;;;;;;;0.20;0.20;;;;;;;1.02;67.32;97215.44;5027135;28;20186;-71
2023/04/05 00:02:35;;;;;;;0.20;0.20;;;;;;;1.09;67.85;97213.84;5030007;28;20589;-71
2023/04/05 00:05:04;;;;;;;0.20;0.20;;;;;;;1.03;67.37;97214.47;5047437;28;20254;-71
2023/04/05 00:07:33;;;;;;;0.20;0.20;;;;;;;1.06;67.62;97218.53;5044810;28;20204;-71
2023/04/05 00:09:58;;;;;;;0.20;0.20;;;;;;;1.00;67.12;97208.81;5053461;28;20237;-71
2023/04/05 00:12:24;;;;;;;0.20;0.20;;;;;;;0.98;67.23;97206.41;5053506;28;20667;-71
2023/04/05 00:14:49;;;;;;;0.20;0.20;;;;;;;1.05;67.39;97209.97;5049485;28;20186;-71
2023/04/05 00:17:16;;;;;;;0.20;0.20;;;;;;;1.12;66.93;97205.78;5049857;28;20224;-71
2023/04/05 00:19:42;;;;;;;0.10;0.10;;;;;;;1.07;66.58;97210.59;5020473;28;20178;-71
2023/04/05 00:22:09;;;;;;;0.10;0.10;;;;;;;0.96;67.49;97200.56;5053279;28;20200;-71
2023/04/05 00:24:38;;;;;;;0.20;0.20;;;;;;;0.98;67.57;97193.50;5051120;28;20177;-71
2023/04/05 00:27:04;;;;;;;0.10;0.10;;;;;;;0.97;67.85;97191.06;5033629;28;20273;-71
2023/04/05 00:29:29;;;;;;;0.20;0.20;;;;;;;1.01;68.01;97184.63;5033744;28;20254;-71
2023/04/05 00:31:56;;;;;;;0.17;0.17;;;;;;;1.04;67.81;97186.91;5034518;28;20306;-71
2023/04/05 00:34:21;;;;;;;0.10;0.10;;;;;;;0.97;68.16;97183.31;5034228;28;20178;-71
2023/04/05 00:36:48;;;;;;;0.20;0.20;;;;;;;0.84;68.26;97178.59;5033270;28;20662;-71
2023/04/05 00:39:13;;;;;;;0.20;0.20;;;;;;;0.92;68.53;97180.41;5048375;28;20193;-71
2023/04/05 00:41:39;;;;;;;0.20;0.20;;;;;;;0.88;68.15;97179.91;5052791;28;20190;-71
2023/04/05 00:44:06;;;;;;;0.17;0.17;;;;;;;0.83;68.93;97177.81;5020322;28;20190;-71
2023/04/05 00:46:36;;;;;;;0.20;0.20;;;;;;;0.89;68.81;97173.81;5052768;28;20176;-71
2023/04/05 00:49:02;;;;;;;0.20;0.20;;;;;;;0.91;68.33;97176.19;5037013;28;20187;-71
2023/04/05 00:51:30;;;;;;;0.20;0.20;;;;;;;0.84;68.31;97176.81;5033306;28;20214;-71
2023/04/05 00:53:55;;;;;;;0.27;0.27;;;;;;;0.77;68.97;97175.84;5034238;28;20289;-71
2023/04/05 00:56:21;;;;;;;0.20;0.20;;;;;;;0.81;69.40;97168.59;5033251;28;20265;-71
2023/04/05 00:58:50;;;;;;;0.20;0.20;;;;;;;0.69;69.62;97168.06;5039700;28;20181;-72
2023/04/05 01:01:18;;;;;;;0.20;0.20;;;;;;;0.67;70.11;97164.03;5051339;28;20543;-71
2023/04/05 01:03:52;;;;;;;0.20;0.20;;;;;;;0.65;70.66;97164.19;5028606;28;20179;-71
2023/04/05 01:06:46;;;;;;;0.20;0.20;;;;;;;0.68;70.67;97161.28;5013261;28;20594;-71
2023/04/05 01:09:44;;;;;;;0.20;0.20;;;;;;;0.72;70.91;97154.06;4995844;28;20636;-71
2023/04/05 01:12:14;;;;;;;0.20;0.20;;;;;;;0.67;70.67;97148.56;5013110;28;20202;-71
2023/04/05 01:14:53;;;;;;;0.27;0.27;;;;;;;0.71;71.03;97152.44;5024508;28;20484;-71
2023/04/05 01:17:21;;;;;;;0.20;0.20;;;;;;;0.72;71.34;97146.31;5016126;28;20328;-71
2023/04/05 01:19:52;;;;;;;0.13;0.13;;;;;;;0.62;71.20;97145.63;5013265;28;20305;-71
2023/04/05 01:22:56;;;;;;;0.20;0.20;;;;;;;0.72;70.82;97141.97;5015306;28;20711;-71
2023/04/05 01:25:59;;;;;;;0.30;0.30;;;;;;;0.78;70.75;97138.75;5015787;28;20254;-71
2023/04/05 01:28:36;;;;;;;0.10;0.10;;;;;;;0.79;70.91;97131.81;5012784;28;20667;-71
2023/04/05 01:31:04;;;;;;;0.20;0.20;;;;;;;0.79;71.31;97135.22;5021251;28;20189;-71
2023/04/05 01:33:40;;;;;;;0.17;0.17;;;;;;;0.60;71.16;97125.16;5021619;28;20241;-71
2023/04/05 01:36:26;;;;;;;0.20;0.20;;;;;;;0.62;71.65;97127.56;5031490;28;20186;-71
2023/04/05 01:38:52;;;;;;;0.20;0.20;;;;;;;0.68;71.35;97120.03;5032314;28;20183;-71
2023/04/05 01:41:18;;;;;;;0.20;0.20;;;;;;;0.57;71.64;97125.47;5032428;28;20226;-71
2023/04/05 01:43:43;;;;;;;0.20;0.20;;;;;;;0.62;71.39;97122.41;5030110;28;20725;-71
2023/04/05 01:46:09;;;;;;;0.20;0.20;;;;;;;0.60;70.71;97119.19;5015156;28;20191;-71
2023/04/05 01:48:34;;;;;;;0.20;0.20;;;;;;;0.62;71.01;97123.22;5012696;28;20178;-71
2023/04/05 01:51:00;;;;;;;0.20;0.20;;;;;;;0.53;71.14;97116.44;5012713;28;20195;-71
2023/04/05 01:53:25;;;;;;;0.17;0.17;;;;;;;0.45;71.57;97123.34;5022898;28;20202;-71
2023/04/05 01:55:50;;;;;;;0.20;0.20;;;;;;;0.49;71.82;97122.06;5013084;28;20193;-71
2023/04/05 01:58:16;;;;;;;0.20;0.20;;;;;;;0.50;71.48;97118.53;5012059;28;20187;-71
2023/04/05 02:00:41;;;;;;;0.20;0.20;;;;;;;0.46;71.44;97118.00;5013829;28;20184;-71
2023/04/05 02:03:06;;;;;;;0.20;0.20;;;;;;;0.57;71.06;97122.06;5028666;28;20230;-71
2023/04/05 02:05:32;;;;;;;0.20;0.20;;;;;;;0.66;70.54;97116.81;5013080;28;20190;-71
2023/04/05 02:07:57;;;;;;;0.20;0.20;;;;;;;0.60;71.43;97116.63;5012567;28;20215;-71
2023/04/05 02:10:23;;;;;;;0.20;0.20;;;;;;;0.33;72.75;97117.66;5012626;28;20194;-71
2023/04/05 02:12:48;;;;;;;0.20;0.20;;;;;;;0.27;73.60;97106.19;5012732;28;20207;-71
2023/04/05 02:15:14;;;;;;;0.20;0.20;;;;;;;0.37;72.55;97106.06;5028696;28;20182;-71
2023/04/05 02:17:44;;;;;;;0.17;0.17;;;;;;;0.32;72.92;97103.94;5030690;28;20183;-71
2023/04/05 02:20:11;;;;;;;0.20;0.20;;;;;;;0.29;72.76;97101.66;5027693;28;20187;-71
2023/04/05 02:22:38;;;;;;;0.20;0.20;;;;;;;0.29;72.95;97106.81;5016361;28;20207;-71
2023/04/05 02:25:05;;;;;;;0.20;0.20;;;;;;;0.24;73.64;97108.25;5016282;28;20179;-69
2023/04/05 02:27:31;;;;;;;0.20;0.20;;;;;;;0.33;73.22;97104.75;5031952;28;20187;-70
2023/04/05 02:29:56;;;;;;;0.20;0.20;;;;;;;0.32;73.25;97101.38;5015923;28;20191;-70
2023/04/05 02:32:22;;;;;;;0.20;0.20;;;;;;;0.40;72.62;97100.56;5016096;28;20574;-69
2023/04/05 02:34:49;;;;;;;0.20;0.20;;;;;;;0.33;72.79;97094.44;4998102;28;20310;-70
2023/04/05 02:37:14;;;;;;;0.20;0.20;;;;;;;0.31;73.72;97096.38;5016034;28;20538;-70
2023/04/05 02:39:40;;;;;;;0.27;0.27;;;;;;;0.22;74.39;97092.97;5032086;28;20293;-70
2023/04/05 02:42:05;;;;;;;0.10;0.10;;;;;;;0.20;74.16;97099.22;5016029;28;20194;-70
2023/04/05 02:44:30;;;;;;;0.20;0.20;;;;;;;0.28;74.12;97094.88;5015853;28;20195;-70
2023/04/05 02:46:56;;;;;;;0.20;0.20;;;;;;;0.26;74.00;97094.25;5015830;28;20184;-70
2023/04/05 02:49:21;;;;;;;0.20;0.20;;;;;;;0.17;73.82;97099.53;5015592;28;20175;-69
2023/04/05 02:51:47;;;;;;;0.20;0.20;;;;;;;0.15;73.68;97091.94;4999873;28;20197;-69
2023/04/05 02:54:12;;;;;;;0.27;0.27;;;;;;;0.20;73.74;97088.91;5035113;28;20223;-69
2023/04/05 02:56:37;;;;;;;0.10;0.10;;;;;;;0.10;74.93;97093.38;5026327;28;20222;-69
2023/04/05 02:59:02;;;;;;;0.20;0.20;;;;;;;0.13;74.90;97088.72;5027717;28;20210;-69
2023/04/05 03:01:28;;;;;;;0.20;0.20;;;;;;;0.12;75.35;97083.69;5022366;28;20241;-70
2023/04/05 03:03:53;;;;;;;0.20;0.20;;;;;;;0.06;74.59;97085.13;5041111;28;20220;-70
2023/04/05 03:06:19;;;;;;;0.20;0.20;;;;;;;0.29;74.57;97088.78;5044465;28;20210;-70
2023/04/05 03:08:47;;;;;;;0.30;0.30;;;;;;;0.15;74.53;97089.38;5035325;28;20182;-70
2023/04/05 03:11:13;;;;;;;0.20;0.20;;;;;;;0.20;75.00;97089.72;5035201;28;20186;-70
2023/04/05 03:13:39;;;;;;;0.20;0.20;;;;;;;0.14;75.17;97087.75;5038313;28;20206;-70
2023/04/05 03:16:04;;;;;;;0.20;0.20;;;;;;;0.10;75.73;97091.59;5050246;28;20185;-70
2023/04/05 03:18:30;;;;;;;0.20;0.20;;;;;;;0.03;74.32;97085.44;5054911;28;20186;-70
2023/04/05 03:20:56;;;;;;;0.20;0.20;;;;;;;0.13;74.17;97080.16;5041148;28;20194;-70
2023/04/05 03:23:27;;;;;;;0.20;0.20;;;;;;;0.16;73.95;97083.25;5034856;28;20365;-70
2023/04/05 03:25:59;;;;;;;0.20;0.20;;;;;;;0.19;74.96;97084.72;5035079;28;20198;-70
2023/04/05 03:28:24;;;;;;;0.30;0.30;;;;;;;0.06;75.68;97079.19;5035838;28;20187;-70
2023/04/05 03:30:50;;;;;;;0.20;0.20;;;;;;;-0.01;75.68;97079.00;5034798;28;20183;-70
2023/04/05 03:33:16;;;;;;;0.20;0.20;;;;;;;-0.03;75.37;97081.72;5034726;28;20242;-70
2023/04/05 03:35:42;;;;;;;0.20;0.20;;;;;;;0.04;74.88;97076.75;5034474;28;20194;-70
2023/04/05 03:38:07;;;;;;;0.27;0.27;;;;;;;-0.03;75.28;97075.75;5034827;28;20723;-70
2023/04/05 03:40:32;;;;;;;0.20;0.20;;;;;;;-0.01;75.43;97071.25;5044227;28;20252;-70
2023/04/05 03:42:58;;;;;;;0.20;0.20;;;;;;;-0.05;75.29;97078.47;5040831;28;20190;-70
2023/04/05 03:45:24;;;;;;;0.20;0.20;;;;;;;-0.05;74.68;97072.50;5034662;28;20187;-70
2023/04/05 03:47:49;;;;;;;0.20;0.20;;;;;;;-0.04;74.98;97076.69;5037635;28;20529;-70
2023/04/05 03:50:14;;;;;;;0.20;0.20;;;;;;;-0.09;75.87;97074.59;5037973;28;20639;-70
2023/04/05 03:52:40;;;;;;;0.20;0.20;;;;;;;-0.14;76.79;97076.00;5044633;28;20225;-70
2023/04/05 03:55:06;;;;;;;0.30;0.30;;;;;;;-0.22;76.81;97076.75;5052236;28;20324;-70
2023/04/05 03:57:32;;;;;;;0.20;0.20;;;;;;;-0.27;76.62;97071.25;5041712;28;20404;-70
2023/04/05 03:59:57;;;;;;;0.20;0.20;;;;;;;-0.29;77.07;97067.25;5034453;28;20198;-70
2023/04/05 04:02:23;;;;;;;0.20;0.20;;;;;;;-0.22;77.08;97079.34;5034032;28;20586;-70
2023/04/05 04:04:48;;;;;;;0.30;0.30;;;;;;;-0.29;77.19;97074.97;5049745;28;20182;-70
2023/04/05 04:07:14;;;;;;;0.20;0.20;;;;;;;-0.29;77.31;97072.38;5035616;28;20273;-70
2023/04/05 04:09:40;;;;;;;0.20;0.20;;;;;;;-0.31;77.29;97071.72;5043744;28;20188;-70
2023/04/05 04:12:05;;;;;;;0.20;0.20;;;;;;;-0.24;76.94;97072.75;5053379;28;20197;-70
2023/04/05 04:14:34;;;;;;;0.20;0.20;;;;;;;-0.14;75.70;97063.94;5054307;28;20186;-70
2023/04/05 04:16:59;;;;;;;0.20;0.20;;;;;;;-0.11;75.59;97063.63;5034062;28;20266;-70
2023/04/05 04:19:25;;;;;;;0.20;0.20;;;;;;;-0.12;76.10;97067.19;5033617;28;20241;-70
2023/04/05 04:21:50;;;;;;;0.30;0.30;;;;;;;-0.32;76.69;97063.19;5034137;28;20186;-70
2023/04/05 04:24:18;;;;;;;0.20;0.20;;;;;;;-0.40;77.30;97072.63;5035052;28;20273;-70
2023/04/05 04:26:45;;;;;;;0.20;0.20;;;;;;;-0.55;77.45;97078.31;5034185;28;20186;-70
2023/04/05 04:29:11;;;;;;;0.30;0.30;;;;;;;-0.42;77.04;97076.16;5053442;28;20215;-70
2023/04/05 04:31:38;;;;;;;0.20;0.20;;;;;;;-0.47;77.12;97072.44;5053545;28;20501;-70
2023/04/05 04:34:04;;;;;;;0.20;0.20;;;;;;;-0.62;79.07;97076.50;5041486;28;20206;-70
2023/04/05 04:36:38;;;;;;;0.20;0.20;;;;;;;-0.66;80.78;97075.97;5047943;28;20242;-70
2023/04/05 04:39:07;;;;;;;0.30;0.30;;;;;;;-0.82;82.36;97081.00;5050411;28;20538;-69
2023/04/05 04:41:37;;;;;;;0.30;0.30;;;;;;;-0.91;84.02;97074.19;5039930;28;20654;-70
2023/04/05 04:44:03;;;;;;;0.20;0.20;;;;;;;-0.85;84.27;97076.16;5053108;28;20591;-70
2023/04/05 04:46:33;;;;;;;0.20;0.20;;;;;;;-0.75;84.82;97073.50;5033217;28;20328;-70
2023/04/05 04:49:04;;;;;;;0.20;0.20;;;;;;;-0.88;87.54;97079.84;5032941;28;20186;-70
2023/04/05 04:51:30;;;;;;;0.27;0.27;;;;;;;-0.82;88.32;97075.03;5041760;28;20258;-69
2023/04/05 04:53:56;;;;;;;0.20;0.20;;;;;;;-1.03;91.14;97072.78;5044844;28;20205;-69
2023/04/05 04:56:21;;;;;;;0.20;0.20;;;;;;;-0.92;91.34;97073.38;5047550;28;20593;-70
2023/04/05 04:58:46;;;;;;;0.20;0.20;;;;;;;-0.97;92.76;97078.16;5033430;28;20213;-69
2023/04/05 05:01:11;;;;;;;0.20;0.20;;;;;;;-0.89;93.19;97073.06;5037361;28;20189;-69
2023/04/05 05:03:37;;;;;;;0.20;0.20;;;;;;;-0.90;93.68;97081.75;5024309;28;20596;-69
2023/04/05 05:06:03;;;;;;;0.20;0.20;;;;;;;-0.84;93.94;97076.00;4995632;28;20656;-69
2023/04/05 05:08:29;;;;;;;0.20;0.20;;;;;;;-0.77;94.32;97076.22;5013579;28;20223;-69
2023/04/05 05:10:54;;;;;;;0.20;0.20;;;;;;;-0.71;94.07;97085.09;5013281;28;20275;-69
2023/04/05 05:13:20;;;;;;;0.30;0.30;;;;;;;-0.61;94.39;97080.69;5013176;28;20206;-69
2023/04/05 05:15:45;;;;;;;0.30;0.30;;;;;;;-0.42;93.62;97083.88;5022354;28;20194;-69
2023/04/05 05:18:11;;;;;;;0.20;0.20;;;;;;;-0.59;94.43;97089.88;5014903;28;20190;-69
2023/04/05 05:20:36;;;;;;;0.20;0.20;;;;;;;-0.39;94.30;97084.56;5015848;28;20175;-70
2023/04/05 05:23:04;;;;;;;0.27;0.27;;;;;;;-0.19;93.00;97088.53;4996660;28;20644;-70
2023/04/05 05:25:29;;;;;;;0.20;0.20;;;;;;;0.03;92.01;97082.88;5022057;28;20655;-69
2023/04/05 05:27:55;;;;;;;0.20;0.20;;;;;;;0.05;91.47;97083.53;5020128;28;20218;-69
2023/04/05 05:30:20;;;;;;;0.20;0.20;;;;;;;0.23;90.48;97086.81;5012822;28;20546;-70
2023/04/05 05:32:46;;;;;;;0.20;0.20;;;;;;;0.29;89.67;97093.94;4997030;28;20576;-70
2023/04/05 05:35:11;;;;;;;0.20;0.20;;;;;;;0.40;88.89;97090.28;5013902;28;20187;-70
2023/04/05 05:37:37;;;;;;;0.30;0.30;;;;;;;0.54;88.19;97092.28;5022840;28;20613;-70
2023/04/05 05:40:05;;;;;;;0.20;0.20;;;;;;;0.99;86.25;97088.50;5032096;28;20558;-71
2023/04/05 05:42:31;;;;;;;0.20;0.20;;;;;;;1.25;83.32;97087.41;5030361;28;20244;-71
2023/04/05 05:44:59;;;;;;;0.20;0.20;;;;;;;1.35;81.83;97082.06;5014397;28;20179;-71
2023/04/05 05:47:24;;;;;;;0.20;0.20;;;;;;;1.16;80.32;97083.22;5021300;28;20176;-70
2023/04/05 05:49:49;;;;;;;0.20;0.20;;;;;;;1.27;80.40;97087.25;5013685;28;20194;-70
2023/04/05 05:52:15;;;;;;;0.20;0.20;;;;;;;1.30;80.72;97086.91;5012873;28;20295;-70
2023/04/05 05:54:40;;;;;;;0.20;0.20;;;;;;;1.61;80.21;97077.56;5031213;28;20584;-70
2023/04/05 05:57:06;;;;;;;0.20;0.20;;;;;;;1.54;79.19;97074.00;5025645;28;20191;-71
2023/04/05 05:59:31;;;;;;;0.20;0.20;;;;;;;1.52;79.19;97073.34;5036662;28;20324;-70
2023/04/05 06:01:56;;;;;;;0.20;0.20;;;;;;;1.98;78.91;97076.19;5028757;28;20227;-70
2023/04/05 06:04:22;;;;;;;0.13;0.13;;;;;;;2.29;78.23;97084.00;5028051;28;20195;-71
2023/04/05 06:06:47;;;;;;;0.10;0.10;;;;;;;2.57;76.29;97085.16;5035953;28;20190;-71
2023/04/05 06:09:16;;;;;;;0.20;0.20;;;;;;;2.10;77.57;97085.19;5035835;28;20179;-70
2023/04/05 06:11:42;;;;;;;0.17;0.17;;;;;;;2.37;75.26;97086.56;5034285;28;20191;-70
2023/04/05 06:14:08;;;;;;;0.10;0.10;;;;;;;2.18;76.49;97090.31;5027083;28;20265;-70
2023/04/05 06:16:34;;;;;;;0.10;0.10;;;;;;;2.42;74.97;97089.44;5016518;28;20190;-70
2023/04/05 06:19:00;;;;;;;0.10;0.10;;;;;;;2.55;73.28;97089.72;5016420;28;20191;-70
2023/04/05 06:21:26;;;;;;;0.10;0.10;;;;;;;2.59;73.41;97091.00;5030281;28;20386;-70
2023/04/05 06:23:51;;;;;;;0.10;0.10;;;;;;;2.32;71.19;97089.66;5018169;28;20183;-70
2023/04/05 06:26:23;;;;;;;0.20;0.20;;;;;;;2.48;69.71;97096.53;5025845;28;20190;-70
2023/04/05 06:28:49;;;;;;;0.10;0.10;;;;;;;2.62;70.52;97089.84;5016287;28;20209;-70
2023/04/05 06:31:16;;;;;;;0.10;0.10;;;;;;;2.56;70.80;97095.72;5028931;28;20186;-70
2023/04/05 06:33:42;;;;;;;0.10;0.10;;;;;;;2.35;70.57;97099.66;5035316;28;20238;-71
2023/04/05 06:36:08;;;;;;;0.20;0.20;;;;;;;2.89;69.88;97104.91;4999474;28;20645;-70
2023/04/05 06:38:33;;;;;;;0.20;0.20;;;;;;;3.14;67.22;97103.78;5026494;28;20175;-70
2023/04/05 06:40:58;;;;;;;0.17;0.17;;;;;;;2.69;67.89;97104.53;5035327;28;20269;-70
2023/04/05 06:43:24;;;;;;;0.10;0.10;;;;;;;2.84;66.89;97102.81;5019993;28;20187;-70
2023/04/05 06:45:49;;;;;;;0.10;0.10;;;;;;;3.04;66.17;97094.63;5032951;28;20194;-70
2023/04/05 06:48:15;;;;;;;0.10;0.10;;;;;;;2.77;68.62;97094.13;5024424;28;20233;-69
2023/04/05 06:50:40;;;;;;;0.10;0.10;;;;;;;3.30;72.32;97090.72;5023951;28;20171;-69
2023/04/05 06:53:06;;;;;;;0.13;0.13;;;;;;;3.64;69.39;97086.88;5030895;28;20206;-71
2023/04/05 06:55:32;;;;;;;0.10;0.10;;;;;;;3.53;68.14;97100.25;5014735;28;20865;-72
2023/04/05 06:57:57;;;;;;;0.20;0.20;;;;;;;3.57;66.71;97097.13;5026959;28;20223;-71
2023/04/05 07:00:23;;;;;;;0.10;0.10;;;;;;;3.17;65.63;97103.44;5016998;28;20202;-71
2023/04/05 07:02:49;;;;;;;0.10;0.10;;;;;;;2.99;68.10;97108.09;5034489;28;20360;-71
2023/04/05 07:05:14;;;;;;;0.10;0.10;;;;;;;3.39;67.61;97101.84;5032797;28;20211;-71
2023/04/05 07:07:42;;;;;;;0.10;0.10;;;;;;;3.56;65.87;97105.91;5034224;28;20190;-71
2023/04/05 07:10:08;;;;;;;0.10;0.10;;;;;;;3.95;64.97;97100.53;5027324;28;20265;-71
2023/04/05 07:12:33;;;;;;;0.10;0.10;;;;;;;4.13;64.61;97106.16;5033340;28;20285;-71
2023/04/05 07:14:59;;;;;;;0.10;0.10;;;;;;;4.04;63.73;97106.44;5016059;28;20238;-71
2023/04/05 07:17:24;;;;;;;0.10;0.10;;;;;;;3.77;64.76;97105.25;5020270;28;20179;-71
2023/04/05 07:19:50;;;;;;;0.10;0.10;;;;;;;4.10;62.58;97110.91;5025623;28;20190;-71
2023/04/05 07:22:15;;;;;;;0.10;0.10;;;;;;;3.82;65.15;97108.09;5023738;28;20233;-72
2023/04/05 07:24:41;;;;;;;0.10;0.10;;;;;;;3.57;60.97;97111.88;5027906;28;20191;-71
2023/04/05 07:27:06;;;;;;;0.10;0.10;;;;;;;3.56;58.99;97112.88;5032925;28;20183;-71
2023/04/05 07:29:33;;;;;;;0.10;0.10;;;;;;;3.99;58.75;97109.56;5026230;28;20178;-71
2023/04/05 07:31:59;;;;;;;0.10;0.10;;;;;;;3.78;59.53;97106.06;5021499;28;20187;-71
2023/04/05 07:34:26;;;;;;;0.10;0.10;;;;;;;3.69;61.17;97105.28;5025618;28;20194;-71
2023/04/05 07:36:51;;;;;;;0.10;0.10;;;;;;;4.32;60.25;97104.84;5033736;28;20190;-71
2023/04/05 07:39:17;;;;;;;0.10;0.10;;;;;;;4.32;60.47;97104.03;5002525;28;20188;-71
2023/04/05 07:41:42;;;;;;;0.17;0.17;;;;;;;3.68;59.31;97104.50;5035231;28;20185;-71
2023/04/05 07:44:08;;;;;;;0.10;0.10;;;;;;;3.47;59.81;97106.94;5027083;28;20258;-71
2023/04/05 07:46:34;;;;;;;0.20;0.20;;;;;;;3.46;59.42;97105.31;5014348;28;20187;-71
2023/04/05 07:48:59;;;;;;;0.10;0.10;;;;;;;3.59;56.66;97100.38;4996985;28;20187;-71
2023/04/05 07:51:26;;;;;;;0.20;0.20;;;;;;;3.85;56.46;97109.53;5014078;28;20262;-71
2023/04/05 07:53:51;;;;;;;0.20;0.20;;;;;;;3.78;56.91;97108.63;5014357;28;20202;-71
2023/04/05 07:56:17;;;;;;;0.10;0.10;;;;;;;3.89;56.40;97111.63;5020561;28;20316;-71
2023/04/05 07:58:43;;;;;;;0.17;0.17;;;;;;;3.52;55.61;97115.00;5034477;28;20186;-70
2023/04/05 08:01:09;;;;;;;0.17;0.17;;;;;;;3.66;55.73;97105.66;5034222;28;20190;-70
2023/04/05 08:03:36;;;;;;;0.10;0.10;;;;;;;3.74;55.06;97110.75;5054064;28;20281;-71
2023/04/05 08:06:11;;;;;;;0.10;0.10;;;;;;;3.84;54.01;97110.53;5054046;28;20178;-71
2023/04/05 08:08:37;;;;;;;0.20;0.20;;;;;;;3.81;54.73;97127.22;5054056;28;20181;-71
2023/04/05 08:11:03;;;;;;;0.10;0.10;;;;;;;3.96;52.10;97115.09;5053712;28;20700;-71
2023/04/05 08:13:28;;;;;;;0.10;0.10;;;;;;;4.48;52.10;97115.03;5053431;28;20574;-70
2023/04/05 08:15:56;;;;;;;0.10;0.10;;;;;;;4.22;52.36;97113.88;5046355;28;20187;-71
2023/04/05 08:18:22;;;;;;;0.10;0.10;;;;;;;4.52;52.32;97115.47;5033903;28;20194;-70
2023/04/05 08:20:52;;;;;;;0.10;0.10;;;;;;;4.56;51.92;97116.75;5047226;28;20175;-71
2023/04/05 08:23:17;;;;;;;0.10;0.10;;;;;;;4.49;51.73;97110.66;5036809;28;20193;-71
2023/04/05 08:25:43;;;;;;;0.20;0.20;;;;;;;4.58;51.03;97115.56;5033665;28;20191;-70
2023/04/05 08:28:09;;;;;;;0.20;0.20;;;;;;;4.72;51.49;97113.94;5035179;28;20222;-71
2023/04/05 08:30:34;;;;;;;0.20;0.20;;;;;;;4.82;49.63;97111.06;5044403;28;20658;-70
2023/04/05 08:32:59;;;;;;;0.10;0.10;;;;;;;5.21;48.65;97111.47;5045500;28;20253;-71
2023/04/05 08:35:25;;;;;;;0.10;0.10;;;;;;;4.92;49.50;97107.19;5035002;28;20186;-70
2023/04/05 08:37:50;;;;;;;0.10;0.10;;;;;;;5.07;49.32;97112.31;5043479;28;20187;-71
2023/04/05 08:40:16;;;;;;;0.10;0.10;;;;;;;5.03;47.80;97124.88;5033354;28;20202;-70
2023/04/05 08:42:50;;;;;;;0.10;0.10;;;;;;;5.02;47.91;97114.66;5015533;28;20191;-71
2023/04/05 08:45:17;;;;;;;0.10;0.10;;;;;;;4.93;47.62;97116.59;5041847;28;20197;-71
2023/04/05 08:47:45;;;;;;;0.10;0.10;;;;;;;5.36;46.16;97109.63;5045623;28;20186;-71
2023/04/05 08:50:12;;;;;;;0.10;0.10;;;;;;;5.22;45.49;97113.09;5037846;28;20501;-70
2023/04/05 08:52:41;;;;;;;0.10;0.10;;;;;;;5.39;46.18;97117.06;5033132;28;20267;-71
2023/04/05 08:55:07;;;;;;;0.10;0.10;;;;;;;5.46;45.74;97124.94;5049701;28;20205;-71
2023/04/05 08:57:36;;;;;;;0.10;0.10;;;;;;;5.01;48.37;97121.66;5050788;28;20182;-70
2023/04/05 09:00:02;;;;;;;0.10;0.10;;;;;;;5.34;46.83;97121.22;5043051;28;20226;-70
2023/04/05 09:02:28;;;;;;;0.10;0.10;;;;;;;5.64;44.94;97119.28;5049580;28;20564;-70
2023/04/05 09:04:55;;;;;;;0.10;0.10;;;;;;;5.41;45.21;97115.06;5052330;28;20658;-70
2023/04/05 09:07:21;;;;;;;0.10;0.10;;;;;;;5.03;46.91;97117.09;5052347;28;20210;-71
2023/04/05 09:09:51;;;;;;;0.10;0.10;;;;;;;5.63;46.33;97112.50;5052560;28;20182;-71
2023/04/05 09:12:20;;;;;;;0.10;0.10;;;;;;;5.84;45.35;97108.06;5052513;28;20186;-71
2023/04/05 09:14:47;;;;;;;0.10;0.10;;;;;;;5.80;45.78;97109.41;5037881;28;20262;-71
2023/04/05 09:17:16;;;;;;;0.10;0.10;;;;;;;5.91;45.71;97112.53;5033017;28;20558;-70
2023/04/05 09:19:42;;;;;;;0.10;0.10;;;;;;;5.80;45.52;97112.00;5038415;28;20194;-71
2023/04/05 09:22:09;;;;;;;0.10;0.10;;;;;;;5.89;45.83;97104.91;5052211;28;20182;-71
2023/04/05 09:24:39;;;;;;;0.20;0.20;;;;;;;6.12;45.39;97109.88;5051053;28;20218;-71
2023/04/05 09:27:13;;;;;;;0.10;0.10;;;;;;;6.27;44.71;97107.97;5048026;28;20534;-71
2023/04/05 09:29:42;;;;;;;0.10;0.10;;;;;;;5.79;46.16;97113.03;5049461;28;20178;-71
2023/04/05 09:32:09;;;;;;;0.10;0.10;;;;;;;5.60;46.42;97120.66;5032899;28;20190;-70
2023/04/05 09:34:37;;;;;;;0.10;0.10;;;;;;;4.77;47.78;97121.19;5032802;28;20189;-70
2023/04/05 09:37:18;;;;;;;0.10;0.10;;;;;;;4.53;48.37;97112.69;5048195;28;20178;-70
2023/04/05 09:39:45;;;;;;;0.10;0.10;;;;;;;5.09;48.43;97119.94;5039403;28;20676;-70
2023/04/05 09:42:10;;;;;;;0.10;0.10;;;;;;;5.28;48.33;97109.75;5052099;28;20184;-70
2023/04/05 09:45:01;;;;;;;0.10;0.10;;;;;;;5.15;48.78;97116.59;5051988;28;20599;-70
2023/04/05 09:47:35;;;;;;;0.10;0.10;;;;;;;5.12;48.35;97111.78;5048400;28;20178;-70
2023/04/05 09:50:05;;;;;;;0.10;0.10;;;;;;;4.86;49.17;97114.88;5034064;28;20179;-70
2023/04/05 09:52:32;;;;;;;0.20;0.20;;;;;;;4.96;49.32;97108.41;5051369;28;20193;-70
2023/04/05 09:55:05;;;;;;;0.10;0.10;;;;;;;4.96;49.39;97107.59;5046804;28;20281;-70
2023/04/05 09:57:36;;;;;;;0.10;0.10;;;;;;;4.74;49.01;97106.75;5035248;28;20590;-70
2023/04/05 10:00:04;;;;;;;0.10;0.10;;;;;;;4.92;48.64;97109.78;5032826;28;20266;-70
2023/04/05 10:02:37;;;;;;;0.10;0.10;;;;;;;5.29;48.41;97102.78;5045010;28;20226;-70
2023/04/05 10:05:12;;;;;;;0.10;0.10;;;;;;;5.12;48.99;97097.00;5049387;28;20255;-70
2023/04/05 10:07:38;;;;;;;0.10;0.10;;;;;;;4.97;48.71;97104.84;5035936;28;20202;-70
2023/04/05 10:10:04;;;;;;;0.10;0.10;;;;;;;5.19;48.82;97100.47;5032233;28;20188;-70
2023/04/05 10:12:31;;;;;;;0.10;0.10;;;;;;;5.48;47.90;97104.75;5047524;28;20222;-70
2023/04/05 10:14:57;;;;;;;0.10;0.10;;;;;;;5.18;47.99;97087.69;5032248;28;20654;-70
2023/04/05 10:17:26;;;;;;;0.10;0.10;;;;;;;5.00;48.91;97095.88;5045788;28;20261;-70
2023/04/05 10:20:08;;;;;;;0.10;0.10;;;;;;;4.65;49.20;97086.28;5047718;28;20215;-70
2023/04/05 10:23:10;;;;;;;0.20;0.20;;;;;;;5.19;48.34;97092.66;5025192;28;20699;-71
2023/04/05 10:25:51;;;;;;;0.10;0.10;;;;;;;4.95;48.40;97091.25;5033143;28;20308;-70
2023/04/05 10:28:31;;;;;;;0.10;0.10;;;;;;;4.88;48.84;97084.34;5032532;28;20182;-70
2023/04/05 10:31:16;;;;;;;0.10;0.10;;;;;;;5.28;48.18;97085.56;5032741;28;20197;-71
2023/04/05 10:33:44;;;;;;;0.10;0.10;;;;;;;5.21;48.92;97077.72;5045686;28;20198;-70
2023/04/05 10:36:37;;;;;;;0.10;0.10;;;;;;;5.03;48.49;97088.50;5042793;28;20187;-70
2023/04/05 10:39:04;;;;;;;0.10;0.10;;;;;;;5.16;47.92;97087.03;5033053;28;20173;-71
2023/04/05 10:41:34;;;;;;;0.10;0.10;;;;;;;5.15;47.33;97077.63;5054233;28;20587;-70
2023/04/05 10:44:02;;;;;;;0.10;0.10;;;;;;;5.40;49.12;97071.09;5044078;28;20185;-70
2023/04/05 10:46:29;;;;;;;0.10;0.10;;;;;;;5.23;47.52;97075.75;5044365;28;20186;-70
2023/04/05 10:49:35;;;;;;;0.10;0.10;;;;;;;5.74;47.36;97062.56;5050212;28;20305;-70
2023/04/05 10:52:02;;;;;;;0.10;0.10;;;;;;;5.81;46.26;97068.59;5025832;28;20181;-69
2023/04/05 10:54:31;;;;;;;0.10;0.10;;;;;;;6.09;46.55;97069.41;5054055;28;20296;-70
2023/04/05 10:56:57;;;;;;;0.10;0.10;;;;;;;6.38;45.68;97065.78;5039493;28;20201;-71
2023/04/05 10:59:25;;;;;;;0.10;0.10;;;;;;;6.29;44.70;97069.56;5036579;28;20189;-71
2023/04/05 11:01:52;;;;;;;0.10;0.10;;;;;;;6.49;44.54;97067.84;5050315;28;20725;-71
2023/04/05 11:04:17;;;;;;;0.10;0.10;;;;;;;6.18;44.66;97065.69;5050147;28;20647;-72
2023/04/05 11:06:46;;;;;;;0.10;0.10;;;;;;;6.64;45.30;97065.88;5026267;28;20185;-71
2023/04/05 11:09:20;;;;;;;0.10;0.10;;;;;;;6.98;44.45;97054.56;5035177;28;20183;-71
2023/04/05 11:11:50;;;;;;;0.00;0.00;;;;;;;7.36;43.66;97059.25;5035363;28;20214;-71
2023/04/05 11:14:34;;;;;;;0.10;0.10;;;;;;;7.38;43.04;97054.63;5050609;28;20387;-72
2023/04/05 11:16:59;;;;;;;0.10;0.10;;;;;;;6.37;43.56;97052.94;5054193;28;20181;-70
2023/04/05 11:19:47;;;;;;;0.10;0.10;;;;;;;6.61;44.57;97045.47;5054723;28;20650;-70
2023/04/05 11:22:24;;;;;;;0.10;0.10;;;;;;;6.91;43.74;97050.38;5041527;28;20179;-71
2023/04/05 11:24:52;;;;;;;0.10;0.10;;;;;;;7.07;42.85;97044.78;5017518;28;20172;-71
2023/04/05 11:27:44;;;;;;;0.10;0.10;;;;;;;7.16;41.89;97037.56;5002775;28;20540;-71
2023/04/05 11:30:09;;;;;;;0.10;0.10;;;;;;;7.19;42.04;97029.38;5034346;28;20209;-71
2023/04/05 11:32:43;;;;;;;0.10;0.10;;;;;;;7.12;42.04;97034.56;5034389;28;20672;-71
2023/04/05 11:35:21;;;;;;;0.10;0.10;;;;;;;7.13;42.46;97028.34;5039825;28;20373;-71
2023/04/05 11:37:59;;;;;;;0.10;0.10;;;;;;;7.19;42.73;97026.75;5017495;28;20179;-71
2023/04/05 11:40:26;;;;;;;0.10;0.10;;;;;;;7.20;42.20;97023.94;5033825;28;20269;-71
2023/04/05 11:43:08;;;;;;;0.10;0.10;;;;;;;7.25;41.86;97025.94;5049572;28;20558;-71
2023/04/05 11:45:36;;;;;;;0.10;0.10;;;;;;;7.12;42.78;97024.13;5034283;28;20174;-70